createdAt,value
2019-03-22T00:00:35.224Z,61.98
2019-03-22T00:03:04.290Z,59.73
2019-03-22T00:05:32.750Z,62.27
2019-03-22T00:08:01.500Z,58.57
2019-03-22T00:10:30.045Z,62.73
2019-03-22T00:12:59.842Z,62.27
2019-03-22T00:15:28.700Z,65.20
2019-03-22T00:17:57.205Z,61.33
2019-03-22T00:20:26.759Z,56.07
2019-03-22T00:22:55.335Z,55.27
2019-03-22T00:25:24.071Z,61.20
2019-03-22T00:27:53.004Z,51.37
2019-03-22T00:30:21.629Z,51.53
2019-03-22T00:32:50.114Z,53.37
2019-03-22T00:35:18.698Z,51.70
2019-03-22T00:37:47.275Z,54.73
2019-03-22T00:40:15.886Z,48.83
2019-03-22T00:42:44.460Z,55.27
2019-03-22T00:45:13.345Z,55.87
2019-03-22T00:47:41.829Z,61.00
2019-03-22T00:50:12.680Z,54.45
2019-03-22T00:52:41.214Z,58.27
2019-03-22T00:55:10.302Z,59.00
2019-03-22T00:57:38.852Z,51.17
2019-03-22T01:00:10.490Z,55.20
2019-03-22T01:02:39.203Z,57.13
2019-03-22T01:05:09.382Z,66.63
2019-03-22T01:07:38.414Z,62.90
2019-03-22T01:10:09.931Z,65.40
2019-03-22T01:12:39.202Z,70.80
2019-03-22T01:15:10.381Z,72.33
2019-03-22T01:17:39.012Z,64.27
2019-03-22T01:20:09.236Z,69.00
2019-03-22T01:22:37.815Z,60.23
2019-03-22T01:25:08.387Z,58.67
2019-03-22T01:27:40.947Z,63.63
2019-03-22T01:30:10.713Z,62.20
2019-03-22T01:32:39.261Z,64.37
2019-03-22T01:35:09.050Z,54.20
2019-03-22T01:37:38.031Z,64.00
2019-03-22T01:40:08.701Z,86.77
2019-03-22T01:42:37.334Z,69.43
2019-03-22T01:45:08.961Z,62.75
2019-03-22T01:47:37.764Z,316.73
2019-03-22T01:50:11.860Z,440.53
2019-03-22T01:52:40.349Z,357.93
2019-03-22T01:55:09.349Z,128.87
2019-03-22T01:57:37.849Z,71.60
2019-03-22T02:00:09.701Z,119.37
2019-03-22T02:02:38.247Z,508.83
2019-03-22T02:05:07.777Z,123.53
2019-03-22T02:07:36.253Z,84.60
2019-03-22T02:10:12.515Z,56.10
2019-03-22T02:12:41.220Z,60.63
2019-03-22T02:15:15.077Z,59.17
2019-03-22T02:17:43.689Z,54.57
2019-03-22T02:20:14.431Z,56.23
2019-03-22T02:22:43.277Z,68.23
2019-03-22T02:25:12.542Z,63.45
2019-03-22T02:27:41.870Z,70.57
2019-03-22T02:30:17.617Z,71.17
2019-03-22T02:32:46.373Z,84.60
2019-03-22T02:35:27.554Z,74.27
2019-03-22T02:37:45.340Z,78.37
2019-03-22T02:40:14.469Z,76.62
2019-03-22T02:42:43.020Z,113.50
2019-03-22T02:45:14.311Z,322.43
2019-03-22T02:47:43.332Z,351.57
2019-03-22T02:50:18.422Z,208.28
2019-03-22T02:52:44.159Z,381.27
2019-03-22T02:55:13.695Z,440.83
2019-03-22T02:57:42.336Z,418.90
2019-03-22T03:00:16.304Z,287.93
2019-03-22T03:02:45.275Z,419.80
2019-03-22T03:05:15.489Z,488.60
2019-03-22T03:07:44.572Z,565.13
2019-03-22T03:10:16.033Z,446.90
2019-03-22T03:12:45.751Z,677.80
2019-03-22T03:15:16.352Z,532.12
2019-03-22T03:17:45.733Z,430.97
2019-03-22T03:20:18.946Z,507.45
2019-03-22T03:22:47.671Z,590.97
2019-03-22T03:25:17.701Z,561.67
2019-03-22T03:27:46.679Z,481.73
2019-03-22T03:30:18.144Z,476.97
2019-03-22T03:32:46.657Z,581.30
2019-03-22T03:35:16.856Z,575.37
2019-03-22T03:37:45.495Z,320.13
2019-03-22T03:40:15.196Z,386.50
2019-03-22T03:42:43.880Z,505.60
2019-03-22T03:45:32.638Z,243.30
2019-03-22T03:48:03.383Z,422.73
2019-03-22T03:50:32.194Z,465.00
2019-03-22T03:53:00.844Z,312.67
2019-03-22T03:55:29.877Z,469.53
2019-03-22T03:57:58.570Z,370.53
2019-03-22T04:00:30.380Z,353.07
2019-03-22T04:02:58.879Z,378.40
2019-03-22T04:05:27.465Z,309.40
2019-03-22T04:07:56.425Z,481.17
2019-03-22T04:10:24.997Z,327.80
2019-03-22T04:12:53.525Z,326.57
2019-03-22T04:15:22.253Z,278.00
2019-03-22T04:17:50.731Z,496.27
2019-03-22T04:20:19.288Z,207.98
2019-03-22T04:22:49.360Z,220.30
2019-03-22T04:25:18.043Z,508.80
2019-03-22T04:27:46.593Z,587.47
2019-03-22T04:30:15.705Z,381.27
2019-03-22T04:32:44.538Z,362.47
2019-03-22T04:35:13.140Z,282.27
2019-03-22T04:37:41.686Z,519.87
2019-03-22T04:40:24.999Z,544.40
2019-03-22T04:42:53.781Z,298.10
2019-03-22T04:45:24.661Z,384.07
2019-03-22T04:47:56.602Z,316.77
2019-03-22T04:50:27.714Z,322.23
2019-03-22T04:53:01.245Z,340.23
2019-03-22T04:55:34.473Z,238.93
2019-03-22T04:58:04.076Z,291.73
2019-03-22T05:00:34.298Z,366.77
2019-03-22T05:03:04.523Z,264.93
2019-03-22T05:05:33.534Z,250.97
2019-03-22T05:08:03.496Z,316.47
2019-03-22T05:10:33.999Z,108.23
2019-03-22T05:13:05.037Z,227.83
2019-03-22T05:15:34.756Z,192.43
2019-03-22T05:18:05.044Z,259.00
2019-03-22T05:20:35.851Z,241.37
2019-03-22T05:23:06.438Z,297.35
2019-03-22T05:25:36.242Z,259.30
2019-03-22T05:28:07.214Z,247.07
2019-03-22T05:30:47.622Z,248.40
2019-03-22T05:33:16.092Z,281.50
2019-03-22T05:35:44.575Z,304.87
2019-03-22T05:38:13.057Z,270.00
2019-03-22T05:40:41.613Z,266.53
2019-03-22T05:43:10.081Z,158.73
2019-03-22T05:45:38.632Z,350.13
2019-03-22T05:48:07.388Z,332.10
2019-03-22T05:50:35.993Z,337.53
2019-03-22T05:53:04.899Z,222.30
2019-03-22T05:55:33.842Z,374.00
2019-03-22T05:58:02.329Z,287.43
2019-03-22T06:00:30.803Z,312.33
2019-03-22T06:02:59.358Z,330.03
2019-03-22T06:05:27.859Z,341.03
2019-03-22T06:07:56.328Z,222.23
2019-03-22T06:10:24.862Z,415.63
2019-03-22T06:12:53.485Z,262.57
2019-03-22T06:15:22.028Z,382.57
2019-03-22T06:17:51.904Z,217.53
2019-03-22T06:20:20.941Z,261.48
2019-03-22T06:22:49.481Z,151.27
2019-03-22T06:25:18.245Z,343.25
2019-03-22T06:27:46.932Z,234.77
2019-03-22T06:30:15.906Z,210.38
2019-03-22T06:32:44.388Z,315.00
2019-03-22T06:35:13.157Z,359.48
2019-03-22T06:37:41.944Z,230.77
2019-03-22T06:40:10.752Z,230.22
2019-03-22T06:42:39.759Z,208.50
2019-03-22T06:45:09.294Z,210.43
2019-03-22T06:47:37.926Z,268.63
2019-03-22T06:50:08.472Z,275.07
2019-03-22T06:52:37.551Z,121.40
2019-03-22T06:55:07.650Z,128.87
2019-03-22T06:57:36.212Z,91.67
2019-03-22T07:00:10.787Z,149.53
2019-03-22T07:02:40.524Z,118.37
2019-03-22T07:05:09.233Z,128.07
2019-03-22T07:07:37.786Z,149.62
2019-03-22T07:10:09.196Z,127.63
2019-03-22T07:12:37.895Z,145.27
2019-03-22T07:15:07.608Z,124.70
2019-03-22T07:17:36.079Z,149.00
2019-03-22T07:20:09.329Z,167.50
2019-03-22T07:22:39.753Z,139.43
2019-03-22T07:25:09.477Z,99.53
2019-03-22T07:27:37.974Z,173.70
2019-03-22T07:30:18.698Z,298.60
2019-03-22T07:32:39.857Z,239.27
2019-03-22T07:35:08.765Z,152.93
2019-03-22T07:37:37.329Z,399.47
2019-03-22T07:40:10.908Z,437.70
2019-03-22T07:42:39.865Z,260.80
2019-03-22T07:45:11.244Z,96.23
2019-03-22T07:47:39.746Z,147.90
2019-03-22T07:50:10.781Z,95.20
2019-03-22T07:52:39.423Z,286.12
2019-03-22T07:55:09.110Z,198.87
2019-03-22T07:57:37.646Z,210.90
2019-03-22T08:00:13.229Z,95.90
2019-03-22T08:02:42.180Z,132.77
2019-03-22T08:05:11.204Z,141.57
2019-03-22T08:07:39.778Z,98.40
2019-03-22T08:10:09.993Z,149.70
2019-03-22T08:12:38.573Z,166.20
2019-03-22T08:15:08.765Z,109.67
2019-03-22T08:17:37.773Z,127.23
2019-03-22T08:20:08.773Z,161.10
2019-03-22T08:22:37.244Z,89.30
2019-03-22T08:25:06.394Z,142.23
2019-03-22T08:27:35.071Z,107.37
2019-03-22T08:30:05.445Z,129.27
2019-03-22T08:32:34.127Z,114.47
2019-03-22T08:35:02.742Z,93.70
2019-03-22T08:37:31.584Z,115.73
2019-03-22T08:40:00.220Z,99.17
2019-03-22T08:42:29.761Z,93.93
2019-03-22T08:44:58.787Z,96.37
2019-03-22T08:47:34.292Z,97.33
2019-03-22T08:49:59.313Z,97.00
2019-03-22T08:52:27.889Z,97.30
2019-03-22T08:54:56.410Z,91.43
2019-03-22T08:57:25.255Z,95.40
2019-03-22T08:59:54.269Z,90.80
2019-03-22T09:02:22.842Z,91.50
2019-03-22T09:04:51.387Z,83.63
2019-03-22T09:07:20.277Z,106.73
2019-03-22T09:09:48.845Z,89.03
2019-03-22T09:12:17.577Z,97.03
2019-03-22T09:14:46.158Z,92.53
2019-03-22T09:17:14.789Z,97.03
2019-03-22T09:19:43.374Z,92.50
2019-03-22T09:22:11.855Z,95.83
2019-03-22T09:24:40.339Z,101.10
2019-03-22T09:27:08.844Z,98.80
2019-03-22T09:29:37.402Z,98.63
2019-03-22T09:32:06.062Z,112.87
2019-03-22T09:34:34.625Z,109.50
2019-03-22T09:37:03.207Z,106.03
2019-03-22T09:39:31.797Z,106.50
2019-03-22T09:42:00.297Z,115.37
2019-03-22T09:44:30.286Z,111.20
2019-03-22T09:46:59.343Z,121.73
2019-03-22T09:49:28.271Z,108.33
2019-03-22T09:51:56.819Z,111.07
2019-03-22T09:54:27.311Z,107.67
2019-03-22T09:56:57.669Z,106.73
2019-03-22T09:59:26.167Z,106.67
2019-03-22T10:01:54.798Z,103.63
2019-03-22T10:04:23.443Z,86.70
2019-03-22T10:06:52.085Z,90.40
2019-03-22T10:09:20.626Z,87.73
2019-03-22T10:11:49.146Z,87.17
2019-03-22T10:14:17.751Z,82.75
2019-03-22T10:16:47.653Z,79.83
2019-03-22T10:19:16.818Z,81.47
2019-03-22T10:21:45.299Z,82.07
2019-03-22T10:24:13.837Z,78.87
2019-03-22T10:26:42.919Z,82.90
2019-03-22T10:29:11.403Z,84.55
2019-03-22T10:31:39.971Z,81.67
2019-03-22T10:34:08.586Z,80.60
2019-03-22T10:36:37.111Z,81.57
2019-03-22T10:39:08.497Z,81.97
2019-03-22T10:41:37.835Z,80.50
2019-03-22T10:44:06.418Z,83.17
2019-03-22T10:46:35.023Z,76.53
2019-03-22T10:49:06.424Z,79.94
2019-03-22T10:51:34.973Z,85.72
2019-03-22T10:54:03.524Z,79.80
2019-03-22T10:56:32.011Z,76.53
2019-03-22T10:59:00.501Z,81.82
2019-03-22T11:01:29.861Z,84.60
2019-03-22T11:03:58.454Z,80.47
2019-03-22T11:06:27.184Z,76.45
2019-03-22T11:08:55.801Z,80.22
2019-03-22T11:11:24.445Z,74.00
2019-03-22T11:13:54.797Z,78.33
2019-03-22T11:16:23.341Z,80.57
2019-03-22T11:18:51.905Z,79.42
2019-03-22T11:21:20.813Z,77.70
2019-03-22T11:23:49.419Z,81.60
2019-03-22T11:26:18.045Z,79.17
2019-03-22T11:28:46.551Z,80.45
2019-03-22T11:31:15.092Z,76.40
2019-03-22T11:33:43.691Z,74.22
2019-03-22T11:36:12.192Z,69.90
2019-03-22T11:38:40.757Z,70.92
2019-03-22T11:41:09.367Z,71.80
2019-03-22T11:43:37.918Z,74.32
2019-03-22T11:46:06.398Z,76.97
2019-03-22T11:48:34.865Z,71.00
2019-03-22T11:51:04.428Z,72.75
2019-03-22T11:53:33.044Z,66.95
2019-03-22T11:56:01.579Z,72.27
2019-03-22T11:58:30.153Z,67.92
2019-03-22T12:00:58.701Z,70.47
2019-03-22T12:03:27.257Z,64.65
2019-03-22T12:05:55.756Z,67.32
2019-03-22T12:08:25.539Z,66.80
2019-03-22T12:10:54.545Z,66.07
2019-03-22T12:13:23.044Z,68.93
2019-03-22T12:15:53.226Z,62.90
2019-03-22T12:18:21.709Z,63.87
2019-03-22T12:20:50.317Z,61.77
2019-03-22T12:23:18.870Z,63.08
2019-03-22T12:25:47.786Z,62.73
2019-03-22T12:28:16.373Z,61.53
2019-03-22T12:30:44.837Z,59.70
2019-03-22T12:33:13.886Z,59.58
2019-03-22T12:35:42.696Z,62.55
2019-03-22T12:38:13.821Z,58.30
2019-03-22T12:40:42.093Z,56.48
2019-03-22T12:43:10.697Z,56.28
2019-03-22T12:45:39.434Z,58.05
2019-03-22T12:48:07.907Z,55.38
2019-03-22T12:50:36.397Z,58.02
2019-03-22T12:53:05.691Z,52.03
2019-03-22T12:55:34.176Z,55.30
2019-03-22T12:58:02.999Z,45.98
2019-03-22T13:00:31.808Z,52.80
2019-03-22T13:03:00.912Z,44.10
2019-03-22T13:05:29.958Z,44.75
2019-03-22T13:07:58.576Z,43.30
2019-03-22T13:10:28.508Z,46.98
2019-03-22T13:12:57.198Z,44.25
2019-03-22T13:15:26.199Z,46.68
2019-03-22T13:17:54.826Z,49.58
2019-03-22T13:20:23.319Z,47.48
2019-03-22T13:22:51.885Z,47.00
2019-03-22T13:25:21.330Z,46.83
2019-03-22T13:27:50.281Z,44.90
2019-03-22T13:30:35.527Z,46.83
2019-03-22T13:33:06.004Z,44.00
2019-03-22T13:35:34.824Z,36.98
2019-03-22T13:38:06.525Z,43.38
2019-03-22T13:40:35.014Z,39.92
2019-03-22T13:43:03.577Z,38.33
2019-03-22T13:45:32.060Z,34.40
2019-03-22T13:48:00.608Z,41.68
2019-03-22T13:50:29.124Z,38.67
2019-03-22T13:52:57.656Z,35.63
2019-03-22T13:55:26.225Z,35.05
2019-03-22T13:57:54.742Z,39.18
2019-03-22T14:00:23.365Z,33.20
2019-03-22T14:03:02.088Z,27.93
2019-03-22T14:05:23.656Z,35.83
2019-03-22T14:07:52.602Z,39.58
2019-03-22T14:10:32.293Z,28.12
2019-03-22T14:13:02.911Z,36.10
2019-03-22T14:15:31.931Z,30.08
2019-03-22T14:18:01.416Z,34.65
2019-03-22T14:20:30.814Z,32.13
2019-03-22T14:22:59.616Z,29.27
2019-03-22T14:25:28.841Z,27.22
2019-03-22T14:27:57.364Z,33.40
2019-03-22T14:30:25.834Z,29.42
2019-03-22T14:32:55.138Z,30.70
2019-03-22T14:35:23.701Z,29.95
2019-03-22T14:37:53.066Z,27.45
2019-03-22T14:40:22.271Z,28.93
2019-03-22T14:42:51.299Z,30.47
2019-03-22T14:45:20.239Z,27.40
2019-03-22T14:47:48.915Z,27.32
2019-03-22T14:50:17.870Z,28.32
2019-03-22T14:52:46.441Z,26.95
2019-03-22T14:55:16.659Z,27.15
2019-03-22T14:57:49.937Z,24.98
2019-03-22T15:00:16.191Z,27.30
2019-03-22T15:02:44.957Z,26.75
2019-03-22T15:05:13.496Z,28.37
2019-03-22T15:07:42.113Z,24.15
2019-03-22T15:10:14.588Z,23.35
2019-03-22T15:12:43.614Z,26.07
2019-03-22T15:15:14.444Z,26.50
2019-03-22T15:17:50.562Z,23.98
2019-03-22T15:20:36.962Z,21.37
2019-03-22T15:23:23.614Z,24.77
2019-03-22T15:25:59.496Z,24.47
2019-03-22T15:28:32.600Z,22.70
2019-03-22T15:31:11.610Z,21.62
2019-03-22T15:33:47.568Z,23.98
2019-03-22T15:36:18.084Z,25.13
2019-03-22T15:39:00.617Z,24.23
2019-03-22T15:41:29.854Z,24.67
2019-03-22T15:43:58.357Z,23.25
2019-03-22T15:46:26.947Z,23.02
2019-03-22T15:48:55.884Z,19.80
2019-03-22T15:51:24.456Z,29.10
2019-03-22T15:53:53.004Z,19.45
2019-03-22T15:56:21.512Z,22.27
2019-03-22T15:58:49.984Z,23.27
2019-03-22T16:01:18.491Z,20.45
2019-03-22T16:03:47.050Z,22.58
2019-03-22T16:06:15.608Z,24.92
2019-03-22T16:08:44.461Z,21.48
2019-03-22T16:11:13.094Z,20.88
2019-03-22T16:13:41.571Z,23.12
2019-03-22T16:16:10.042Z,20.83
2019-03-22T16:18:38.545Z,22.22
2019-03-22T16:21:08.560Z,22.25
2019-03-22T16:23:37.035Z,23.75
2019-03-22T16:26:05.598Z,24.10
2019-03-22T16:28:34.135Z,23.65
2019-03-22T16:31:02.700Z,20.55
2019-03-22T16:33:31.420Z,24.87
2019-03-22T16:36:00.142Z,27.05
2019-03-22T16:38:30.667Z,21.68
2019-03-22T16:41:00.095Z,21.57
2019-03-22T16:43:28.602Z,24.35
2019-03-22T16:45:57.340Z,25.65
2019-03-22T16:48:26.043Z,26.07
2019-03-22T16:50:54.862Z,38.00
2019-03-22T16:53:23.467Z,39.67
2019-03-22T16:55:52.119Z,45.85
2019-03-22T16:58:20.594Z,42.37
2019-03-22T17:00:50.069Z,28.17
2019-03-22T17:03:19.180Z,30.43
2019-03-22T17:05:47.899Z,27.22
2019-03-22T17:08:16.530Z,28.90
2019-03-22T17:10:45.088Z,26.25
2019-03-22T17:13:13.882Z,28.95
2019-03-22T17:15:42.573Z,34.40
2019-03-22T17:18:11.065Z,27.00
2019-03-22T17:20:39.546Z,33.85
2019-03-22T17:23:08.098Z,45.17
2019-03-22T17:25:36.633Z,32.48
2019-03-22T17:28:05.581Z,27.58
2019-03-22T17:30:35.515Z,28.40
2019-03-22T17:33:04.940Z,31.00
2019-03-22T17:35:33.774Z,26.10
2019-03-22T17:38:02.407Z,36.38
2019-03-22T17:40:30.884Z,30.55
2019-03-22T17:42:59.479Z,32.88
2019-03-22T17:45:29.255Z,32.98
2019-03-22T17:47:58.264Z,31.65
2019-03-22T17:50:26.773Z,31.82
2019-03-22T17:52:55.244Z,31.73
2019-03-22T17:55:24.093Z,33.27
2019-03-22T17:57:53.891Z,36.28
2019-03-22T18:00:24.568Z,38.83
2019-03-22T18:02:53.182Z,34.23
2019-03-22T18:05:22.462Z,35.83
2019-03-22T18:07:52.674Z,42.05
2019-03-22T18:10:23.228Z,38.10
2019-03-22T18:12:51.908Z,29.67
2019-03-22T18:15:20.879Z,32.38
2019-03-22T18:17:49.674Z,32.98
2019-03-22T18:20:18.321Z,36.93
2019-03-22T18:22:46.959Z,33.95
2019-03-22T18:25:15.869Z,36.23
2019-03-22T18:27:44.993Z,39.45
2019-03-22T18:30:20.537Z,37.40
2019-03-22T18:32:49.673Z,35.52
2019-03-22T18:35:19.797Z,33.83
2019-03-22T18:37:48.267Z,36.70
2019-03-22T18:40:18.540Z,37.47
2019-03-22T18:42:47.002Z,37.30
2019-03-22T18:45:15.679Z,42.70
2019-03-22T18:47:44.460Z,42.23
2019-03-22T18:50:14.047Z,44.80
2019-03-22T18:52:43.795Z,46.92
2019-03-22T18:55:12.831Z,52.13
2019-03-22T18:57:41.526Z,48.40
2019-03-22T19:00:35.470Z,48.25
2019-03-22T19:03:08.287Z,53.60
2019-03-22T19:05:36.841Z,60.58
2019-03-22T19:08:07.094Z,60.95
2019-03-22T19:10:35.571Z,60.43
2019-03-22T19:13:04.689Z,57.94
2019-03-22T19:15:33.287Z,61.73
2019-03-22T19:18:02.284Z,64.58
2019-03-22T19:20:30.863Z,58.17
2019-03-22T19:22:59.342Z,69.65
2019-03-22T19:25:27.901Z,59.50
2019-03-22T19:27:56.391Z,60.03
2019-03-22T19:30:25.097Z,58.00
2019-03-22T19:32:53.580Z,58.17
2019-03-22T19:35:23.274Z,62.05
2019-03-22T19:37:52.886Z,65.07
2019-03-22T19:40:21.441Z,64.90
2019-03-22T19:42:50.177Z,66.73
2019-03-22T19:45:18.735Z,72.47
2019-03-22T19:47:53.373Z,69.93
2019-03-22T19:50:23.786Z,76.62
2019-03-22T19:52:52.319Z,73.43
2019-03-22T19:55:20.834Z,72.35
2019-03-22T19:57:49.372Z,73.97
2019-03-22T20:00:19.752Z,76.77
2019-03-22T20:02:49.289Z,81.60
2019-03-22T20:05:37.410Z,81.05
2019-03-22T20:08:06.318Z,85.97
2019-03-22T20:10:34.845Z,94.53
2019-03-22T20:13:03.857Z,98.53
2019-03-22T20:15:32.456Z,88.87
2019-03-22T20:18:01.026Z,93.93
2019-03-22T20:20:29.866Z,97.07
2019-03-22T20:22:58.521Z,94.23
2019-03-22T20:25:27.086Z,93.43
2019-03-22T20:27:55.563Z,94.87
2019-03-22T20:30:24.265Z,97.30
2019-03-22T20:32:52.778Z,97.60
2019-03-22T20:35:21.396Z,93.80
2019-03-22T20:37:50.060Z,98.07
2019-03-22T20:40:22.368Z,98.12
2019-03-22T20:42:51.022Z,95.37
2019-03-22T20:45:24.223Z,97.65
2019-03-22T20:47:49.902Z,101.53
2019-03-22T20:50:18.386Z,101.63
2019-03-22T20:52:49.344Z,101.70
2019-03-22T20:55:17.924Z,104.80
2019-03-22T20:57:46.551Z,105.40
2019-03-22T21:00:35.034Z,108.03
2019-03-22T21:03:03.517Z,101.20
2019-03-22T21:05:32.175Z,107.33
2019-03-22T21:08:00.692Z,103.23
2019-03-22T21:10:29.188Z,101.67
2019-03-22T21:12:59.332Z,102.20
2019-03-22T21:15:27.900Z,99.40
2019-03-22T21:18:09.222Z,99.27
2019-03-22T21:20:35.156Z,106.57
2019-03-22T21:23:09.726Z,102.60
2019-03-22T21:25:43.935Z,103.93
2019-03-22T21:28:12.531Z,111.72
2019-03-22T21:30:45.546Z,106.77
2019-03-22T21:33:14.012Z,110.72
2019-03-22T21:35:42.517Z,110.07
2019-03-22T21:38:11.489Z,106.30
2019-03-22T21:40:40.446Z,99.83
2019-03-22T21:43:09.230Z,107.40
2019-03-22T21:45:37.709Z,105.97
2019-03-22T21:48:06.266Z,114.83
2019-03-22T21:50:34.758Z,113.67
2019-03-22T21:53:03.231Z,110.20
2019-03-22T21:55:31.829Z,120.53
2019-03-22T21:58:00.356Z,126.57
2019-03-22T22:00:29.542Z,136.27
2019-03-22T22:02:58.192Z,154.33
2019-03-22T22:05:26.952Z,152.13
2019-03-22T22:07:55.782Z,128.33
2019-03-22T22:10:24.273Z,164.03
2019-03-22T22:12:52.846Z,134.35
2019-03-22T22:15:21.653Z,151.27
2019-03-22T22:17:50.165Z,136.40
2019-03-22T22:20:28.389Z,139.37
2019-03-22T22:22:49.016Z,159.10
2019-03-22T22:25:17.505Z,145.57
2019-03-22T22:27:46.296Z,137.40
2019-03-22T22:30:14.968Z,143.70
2019-03-22T22:32:43.485Z,154.40
2019-03-22T22:35:12.649Z,155.37
2019-03-22T22:37:41.148Z,147.37
2019-03-22T22:40:11.395Z,165.65
2019-03-22T22:42:40.085Z,186.23
2019-03-22T22:45:12.474Z,149.23
2019-03-22T22:47:40.945Z,167.40
2019-03-22T22:50:11.973Z,147.10
2019-03-22T22:52:40.853Z,170.13
2019-03-22T22:55:10.484Z,165.57
2019-03-22T22:57:39.105Z,164.63
2019-03-22T23:00:15.096Z,176.60
2019-03-22T23:02:44.811Z,171.60
2019-03-22T23:05:13.827Z,170.65
2019-03-22T23:07:42.688Z,180.33
2019-03-22T23:10:12.843Z,195.97
2019-03-22T23:12:42.051Z,192.40
2019-03-22T23:15:11.359Z,174.83
2019-03-22T23:17:40.050Z,173.50
2019-03-22T23:20:10.555Z,210.80
2019-03-22T23:22:39.202Z,176.10
2019-03-22T23:25:07.826Z,192.73
2019-03-22T23:27:37.558Z,193.20
2019-03-22T23:30:13.570Z,199.67
2019-03-22T23:32:42.087Z,194.47
2019-03-22T23:35:10.821Z,205.77
2019-03-22T23:37:39.319Z,181.70
2019-03-22T23:40:09.336Z,185.57
2019-03-22T23:42:37.877Z,210.23
2019-03-22T23:45:09.072Z,204.73
2019-03-22T23:47:37.845Z,192.30
2019-03-22T23:50:08.279Z,183.77
2019-03-22T23:52:36.788Z,189.47
2019-03-22T23:55:07.233Z,171.40
2019-03-22T23:57:35.791Z,186.20
